Time;durP1;ratioP1;P1;durP2;ratioP2;P2;SDS_P1;SDS_P2;PMS_P1;PMS_P2;Temp;Humidity;BMP_temperature;BMP_pressure;BME280_temperature;BME280_humidity;BME280_pressure;Samples;Min_cycle;Max_cycle;Signal;HPM_P1;HPM_P2
2021/12/04 00:01:24;;;;;;;11.10;7.20;;;12.00;69.00;;;;;;10352234;28;20289;-82
2021/12/04 00:06:32;;;;;;;10.57;5.97;;;11.40;82.10;;;;;;10325673;28;20260;-83
2021/12/04 00:11:37;;;;;;;13.97;8.37;;;11.90;76.80;;;;;;10364926;28;20612;-83
2021/12/04 00:16:40;;;;;;;8.30;5.53;;;11.00;63.30;;;;;;10364550;28;20233;-83
2021/12/04 00:21:44;;;;;;;9.60;5.80;;;10.90;82.40;;;;;;10359721;28;20260;-82
2021/12/04 00:26:50;;;;;;;8.43;5.87;;;10.50;81.60;;;;;;10332203;28;20254;-83
2021/12/04 00:32:04;;;;;;;7.63;5.23;;;10.80;75.60;;;;;;10362260;28;20234;-83
2021/12/04 00:53:10;;;;;;;8.07;5.60;;;12.70;79.90;;;;;;10370734;28;20266;-82
2021/12/04 00:58:14;;;;;;;11.00;5.57;;;11.60;80.70;;;;;;10372394;28;20304;-82
2021/12/04 01:03:16;;;;;;;11.77;6.80;;;11.50;78.60;;;;;;10335890;28;20312;-82
2021/12/04 01:08:19;;;;;;;10.40;6.67;;;10.40;72.20;;;;;;10344758;28;20281;-82
2021/12/04 01:13:22;;;;;;;12.87;5.90;;;10.70;76.40;;;;;;10371173;28;20233;-83
2021/12/04 01:18:25;;;;;;;7.90;5.03;;;12.40;77.40;;;;;;10371582;28;20235;-82
2021/12/04 01:23:29;;;;;;;5.83;4.23;;;12.20;67.80;;;;;;10362431;28;20280;-82
2021/12/04 01:28:32;;;;;;;7.43;4.63;;;12.80;77.20;;;;;;10329653;28;20259;-82
2021/12/04 01:33:34;;;;;;;8.37;4.53;;;12.40;72.20;;;;;;10357181;28;20353;-82
2021/12/04 01:38:37;;;;;;;7.07;4.27;;;11.60;76.90;;;;;;10371055;28;20296;-82
2021/12/04 01:43:39;;;;;;;7.50;4.77;;;11.50;79.60;;;;;;10364164;28;20229;-82
2021/12/04 01:48:42;;;;;;;6.90;4.10;;;12.40;74.80;;;;;;10329591;28;20260;-82
2021/12/04 01:53:45;;;;;;;8.10;5.73;;;12.10;69.20;;;;;;10340988;28;20284;-82
2021/12/04 01:58:48;;;;;;;6.23;4.93;;;12.40;70.40;;;;;;10367679;28;20953;-82
2021/12/04 02:03:50;;;;;;;6.57;5.37;;;12.40;73.50;;;;;;10369088;28;20763;-82
2021/12/04 02:08:53;;;;;;;5.77;3.90;;;10.90;67.30;;;;;;10364494;28;20311;-82
2021/12/04 02:13:56;;;;;;;7.47;4.10;;;12.50;75.40;;;;;;10367887;28;20242;-82
2021/12/04 02:18:59;;;;;;;6.87;4.33;;;12.90;74.10;;;;;;10367466;28;20282;-82
2021/12/04 02:24:01;;;;;;;6.17;3.67;;;12.30;73.40;;;;;;10368792;28;20305;-82
2021/12/04 02:29:04;;;;;;;7.40;3.83;;;13.10;73.40;;;;;;10369187;28;20251;-82
2021/12/04 02:34:07;;;;;;;6.40;3.67;;;13.10;72.60;;;;;;10344866;28;20229;-82
2021/12/04 02:39:10;;;;;;;7.30;5.23;;;13.50;71.80;;;;;;10352988;28;20250;-82
2021/12/04 02:44:12;;;;;;;6.00;3.53;;;12.00;65.00;;;;;;10367854;28;20231;-82
2021/12/04 02:49:15;;;;;;;6.57;4.87;;;12.60;74.20;;;;;;10364926;28;20315;-82
2021/12/04 02:54:18;;;;;;;5.07;3.33;;;12.50;72.40;;;;;;10366978;28;20229;-82
2021/12/04 02:59:21;;;;;;;5.67;4.57;;;13.10;72.70;;;;;;10327790;28;20680;-82
2021/12/04 03:04:25;;;;;;;4.40;3.83;;;12.60;70.40;;;;;;10348459;28;20255;-82
2021/12/04 03:09:27;;;;;;;6.73;5.03;;;12.30;73.60;;;;;;10366005;28;20254;-82
2021/12/04 03:14:30;;;;;;;5.47;3.70;;;12.30;69.60;;;;;;10367747;28;20294;-82
2021/12/04 03:19:34;;;;;;;7.40;3.77;;;13.10;71.90;;;;;;10362123;28;20333;-82
2021/12/04 03:24:40;;;;;;;4.97;3.83;;;13.30;71.30;;;;;;10367171;28;20304;-82
2021/12/04 03:29:48;;;;;;;7.97;5.77;;;13.30;71.00;;;;;;10366647;28;20251;-83
2021/12/04 03:45:37;;;;;;;7.93;4.20;;;13.40;70.70;;;;;;10362389;28;20231;-82
2021/12/04 03:50:39;;;;;;;5.53;3.97;;;13.50;69.50;;;;;;10365623;28;20251;-82
2021/12/04 03:55:42;;;;;;;6.03;3.83;;;13.40;67.40;;;;;;10362739;28;20227;-82
2021/12/04 04:00:45;;;;;;;6.77;4.43;;;13.20;71.10;;;;;;10326080;28;20236;-82
2021/12/04 04:05:48;;;;;;;4.57;3.43;;;13.30;70.40;;;;;;10325451;28;20286;-83
2021/12/04 04:10:53;;;;;;;6.63;3.97;;;13.20;70.70;;;;;;10335564;28;20256;-82
2021/12/04 04:15:55;;;;;;;4.67;3.50;;;12.80;70.30;;;;;;10324610;28;20241;-82
2021/12/04 04:20:59;;;;;;;4.27;3.10;;;13.20;71.00;;;;;;10348591;28;20725;-82
2021/12/04 04:26:02;;;;;;;10.33;5.57;;;13.30;70.70;;;;;;10364758;28;20257;-80
2021/12/04 04:31:05;;;;;;;4.30;3.00;;;12.60;69.60;;;;;;10362193;28;20286;-80
2021/12/04 04:36:33;;;;;;;9.70;5.83;;;12.70;72.60;;;;;;10362800;28;20295;-80
2021/12/04 05:13:39;;;;;;;14.17;7.00;;;13.10;70.70;;;;;;10362644;28;20243;-82
2021/12/04 05:18:52;;;;;;;10.27;5.20;;;12.10;70.80;;;;;;10340798;28;20263;-82
2021/12/04 05:23:55;;;;;;;7.23;4.83;;;12.40;71.60;;;;;;10363559;28;20338;-82
2021/12/04 05:28:59;;;;;;;5.90;4.37;;;12.30;73.10;;;;;;10362133;28;20313;-83
2021/12/04 05:34:02;;;;;;;4.43;3.40;;;12.30;73.40;;;;;;10363392;28;20232;-82
2021/12/04 05:39:05;;;;;;;5.20;3.63;;;12.50;72.80;;;;;;10367066;28;20286;-82
2021/12/04 05:44:10;;;;;;;6.37;3.47;;;12.90;72.10;;;;;;10332792;28;20286;-82
2021/12/04 05:59:39;;;;;;;5.67;3.70;;;11.90;74.20;;;;;;10369195;28;20247;-82
2021/12/04 06:04:42;;;;;;;5.83;4.17;;;12.20;73.30;;;;;;10368187;28;20302;-82
2021/12/04 06:09:45;;;;;;;5.10;3.50;;;12.80;72.10;;;;;;10369812;28;20281;-82
2021/12/04 06:14:49;;;;;;;13.47;7.47;;;13.10;71.50;;;;;;10367864;28;20224;-82
2021/12/04 06:25:24;;;;;;;18.67;11.07;;;12.20;71.80;;;;;;10369223;28;20285;-82
2021/12/04 06:30:33;;;;;;;6.20;4.17;;;11.60;70.10;;;;;;10364323;28;20256;-82
2021/12/04 06:35:40;;;;;;;6.80;5.73;;;11.60;75.30;;;;;;10353613;28;20282;-82
2021/12/04 06:40:44;;;;;;;17.97;10.93;;;12.30;73.90;;;;;;10363063;28;20267;-82
2021/12/04 06:45:58;;;;;;;13.83;9.17;;;12.60;68.20;;;;;;10353929;28;20263;-82
2021/12/04 06:51:08;;;;;;;10.67;6.80;;;11.10;72.50;;;;;;10368213;28;20290;-82
2021/12/04 06:56:12;;;;;;;4.73;3.63;;;12.20;73.70;;;;;;10362964;28;20228;-82
2021/12/04 07:01:14;;;;;;;5.13;4.03;;;12.50;73.20;;;;;;10338172;28;20287;-81
2021/12/04 07:06:17;;;;;;;11.50;7.50;;;12.90;72.20;;;;;;10366883;28;20678;-82
2021/12/04 07:11:20;;;;;;;15.40;10.47;;;12.50;71.80;;;;;;10366533;28;20276;-82
2021/12/04 07:16:23;;;;;;;4.93;3.80;;;12.30;68.20;;;;;;10366256;28;20286;-82
2021/12/04 07:21:26;;;;;;;12.50;8.60;;;12.40;73.20;;;;;;10348431;28;20261;-82
2021/12/04 07:26:29;;;;;;;11.33;6.80;;;12.50;70.50;;;;;;10324884;28;20796;-82
2021/12/04 07:31:32;;;;;;;12.40;6.63;;;12.90;71.30;;;;;;10355440;28;20254;-82
2021/12/04 07:36:35;;;;;;;5.70;4.23;;;12.80;71.40;;;;;;10330544;28;20224;-82
2021/12/04 07:41:42;;;;;;;11.13;7.70;;;12.50;73.10;;;;;;10362466;28;20290;-82
2021/12/04 07:46:45;;;;;;;5.67;4.37;;;11.60;71.40;;;;;;10351885;28;20605;-82
2021/12/04 07:51:48;;;;;;;6.20;4.20;;;12.30;72.80;;;;;;10349173;28;20661;-82
2021/12/04 07:56:51;;;;;;;12.53;6.87;;;12.50;73.10;;;;;;10364676;28;20251;-82
2021/12/04 08:01:54;;;;;;;6.07;3.90;;;12.90;70.80;;;;;;10363685;28;20232;-82
2021/12/04 08:06:57;;;;;;;8.97;7.10;;;13.00;71.50;;;;;;10366111;28;20242;-82
2021/12/04 08:11:59;;;;;;;12.57;8.37;;;12.70;70.70;;;;;;10363799;28;20292;-82
2021/12/04 08:17:02;;;;;;;11.50;6.97;;;12.50;71.90;;;;;;10363871;28;20680;-82
2021/12/04 08:22:05;;;;;;;8.07;5.90;;;12.80;70.50;;;;;;10364668;28;20265;-82
2021/12/04 08:27:09;;;;;;;7.90;5.10;;;12.10;72.10;;;;;;10363492;28;20277;-82
2021/12/04 08:32:14;;;;;;;4.43;4.03;;;12.40;71.70;;;;;;10356016;28;20728;-82
2021/12/04 08:37:18;;;;;;;9.07;5.97;;;13.00;71.90;;;;;;10338660;28;20293;-82
2021/12/04 08:42:21;;;;;;;13.93;9.93;;;12.60;71.20;;;;;;10364549;28;20231;-82
2021/12/04 08:47:24;;;;;;;11.03;6.93;;;12.70;68.80;;;;;;10327507;28;20316;-82
2021/12/04 08:52:27;;;;;;;7.30;4.80;;;12.80;70.40;;;;;;10325376;28;20267;-81
2021/12/04 08:57:30;;;;;;;9.83;4.47;;;13.20;70.40;;;;;;10334929;28;20279;-82
2021/12/04 09:02:32;;;;;;;11.67;7.87;;;13.20;70.80;;;;;;10363201;28;20281;-82
2021/12/04 09:07:35;;;;;;;6.00;4.17;;;12.90;65.00;;;;;;10361214;28;20292;-82
2021/12/04 09:12:39;;;;;;;5.97;4.27;;;13.30;70.80;;;;;;10341106;28;20278;-82
2021/12/04 09:17:42;;;;;;;5.20;4.23;;;13.30;70.20;;;;;;10367168;28;20237;-82
2021/12/04 09:22:46;;;;;;;8.03;4.00;;;13.80;68.80;;;;;;10368460;28;20307;-82
2021/12/04 09:28:10;;;;;;;6.00;4.10;;;13.80;69.10;;;;;;10367974;28;20856;-82
2021/12/04 10:00:05;;;;;;;7.43;5.23;;;12.80;71.50;;;;;;10366282;28;20234;-82
2021/12/04 10:16:19;;;;;;;8.13;4.97;;;13.30;69.50;;;;;;10335860;28;20289;-81
2021/12/04 10:21:35;;;;;;;7.97;5.40;;;12.80;71.10;;;;;;10367552;28;20317;-82
2021/12/04 10:37:17;;;;;;;10.83;7.63;;;12.90;71.60;;;;;;10366912;28;20234;-81
2021/12/04 10:42:28;;;;;;;18.50;10.83;;;13.00;68.50;;;;;;10368400;28;20681;-82
2021/12/04 10:47:31;;;;;;;11.57;7.73;;;12.60;67.80;;;;;;10366772;28;20275;-82
2021/12/04 10:52:49;;;;;;;9.90;7.47;;;13.20;67.80;;;;;;10368335;28;20234;-81
2021/12/04 11:24:43;;;;;;;10.67;7.37;;;11.60;68.80;;;;;;10348419;28;20267;-84
2021/12/04 11:51:02;;;;;;;14.93;9.93;;;12.10;71.20;;;;;;10358444;28;20359;-83
2021/12/04 11:56:11;;;;;;;13.20;8.70;;;12.00;71.40;;;;;;10344462;28;20296;-83
2021/12/04 12:01:37;;;;;;;9.37;6.57;;;12.20;70.10;;;;;;10355249;28;20232;-83
2021/12/04 12:06:45;;;;;;;10.33;6.43;;;12.90;70.30;;;;;;10346050;28;20223;-84
2021/12/04 12:11:55;;;;;;;9.53;6.33;;;12.90;70.40;;;;;;10357068;28;20733;-83
2021/12/04 12:16:58;;;;;;;21.47;13.43;;;13.00;69.90;;;;;;10358153;28;20719;-86
2021/12/04 12:22:08;;;;;;;15.67;9.97;;;12.00;64.00;;;;;;10359914;28;20319;-86
2021/12/04 12:33:09;;;;;;;18.27;10.53;;;12.40;64.80;;;;;;10362002;28;20271;-85
2021/12/04 12:38:02;;;;;;;17.50;10.80;;;12.00;64.90;;;;;;10357985;28;20273;-85
2021/12/04 12:43:11;;;;;;;18.07;9.87;;;12.00;65.00;;;;;;10342263;28;20277;-86
2021/12/04 12:48:14;;;;;;;16.63;10.00;;;11.60;66.70;;;;;;10364573;28;20686;-85
2021/12/04 12:53:19;;;;;;;17.40;10.37;;;11.50;66.00;;;;;;10365144;28;20247;-86
2021/12/04 12:58:29;;;;;;;13.83;9.23;;;11.60;67.30;;;;;;10366967;28;20341;-86
2021/12/04 13:14:31;;;;;;;14.53;10.03;;;11.40;69.80;;;;;;10367293;28;20250;-86
2021/12/04 13:19:37;;;;;;;15.17;9.77;;;11.30;68.00;;;;;;10365375;28;20336;-86
2021/12/04 13:24:44;;;;;;;13.90;8.67;;;11.10;69.40;;;;;;10366789;28;20266;-86
2021/12/04 13:30:02;;;;;;;17.17;9.23;;;11.50;69.70;;;;;;10366669;28;20365;-86
2021/12/04 13:35:15;;;;;;;14.53;9.13;;;11.60;69.80;;;;;;10366084;28;20277;-85
2021/12/04 13:40:19;;;;;;;17.27;9.07;;;11.70;69.50;;;;;;10365890;28;20282;-86
2021/12/04 13:45:22;;;;;;;11.03;7.70;;;11.90;69.40;;;;;;10380436;28;20269;-86
2021/12/04 13:55:36;;;;;;;12.00;7.47;;;12.30;68.60;;;;;;10365058;28;20330;-86
2021/12/04 14:00:38;;;;;;;15.30;8.93;;;12.30;68.90;;;;;;10362887;28;20250;-86
2021/12/04 14:05:41;;;;;;;11.20;7.87;;;12.30;68.80;;;;;;10363326;28;20648;-86
2021/12/04 14:10:45;;;;;;;32.93;12.70;;;12.30;69.10;;;;;;10362722;28;20305;-87
2021/12/04 14:15:50;;;;;;;41.93;13.37;;;11.30;76.10;;;;;;10367870;28;20230;-87
2021/12/04 14:20:57;;;;;;;33.17;11.90;;;12.20;73.30;;;;;;10364865;28;20804;-88
2021/12/04 14:26:03;;;;;;;24.53;12.20;;;12.50;73.90;;;;;;10367719;28;20247;-88
2021/12/04 14:31:06;;;;;;;31.07;12.97;;;12.60;75.00;;;;;;10367964;28;20288;-87
2021/12/04 14:36:11;;;;;;;20.40;10.83;;;12.90;75.60;;;;;;10368295;28;20973;-87
2021/12/04 14:41:14;;;;;;;25.33;11.10;;;13.30;76.00;;;;;;10368445;28;20227;-88
2021/12/04 14:46:22;;;;;;;30.23;11.63;;;13.40;76.50;;;;;;10368522;28;20293;-88
2021/12/04 14:51:26;;;;;;;42.77;11.23;;;13.70;76.70;;;;;;10368173;28;20259;-88
2021/12/04 14:56:30;;;;;;;24.17;10.93;;;13.90;76.80;;;;;;10368000;28;20679;-88
2021/12/04 15:01:34;;;;;;;21.80;10.77;;;14.00;77.00;;;;;;10366826;28;20298;-87
2021/12/04 15:06:38;;;;;;;22.50;10.97;;;14.20;77.20;;;;;;10366073;28;20680;-87
2021/12/04 15:11:47;;;;;;;17.33;10.20;;;14.20;77.70;;;;;;10366086;28;20656;-87
2021/12/04 15:16:54;;;;;;;23.43;15.37;;;13.30;80.60;;;;;;10367317;28;20236;-86
2021/12/04 15:22:01;;;;;;;21.50;13.37;;;14.00;67.70;;;;;;10350727;28;20311;-86
2021/12/04 15:27:09;;;;;;;24.47;13.60;;;14.00;68.40;;;;;;10327019;28;20287;-86
2021/12/04 15:32:15;;;;;;;21.13;13.10;;;14.20;69.00;;;;;;10326782;28;20723;-86
2021/12/04 15:37:55;;;;;;;20.70;13.27;;;14.20;69.90;;;;;;10363308;28;20282;-86
2021/12/04 15:48:20;;;;;;;24.93;13.77;;;14.20;71.50;;;;;;10366024;28;20688;-86
2021/12/04 15:53:23;;;;;;;21.87;11.60;;;14.10;72.00;;;;;;10364470;28;20259;-86
2021/12/04 15:58:32;;;;;;;17.60;11.40;;;14.00;73.10;;;;;;10339599;28;20749;-86
2021/12/04 16:03:40;;;;;;;22.37;12.70;;;13.50;74.30;;;;;;10328017;28;20224;-86
2021/12/04 16:08:43;;;;;;;18.80;11.13;;;13.70;75.00;;;;;;10364030;28;20255;-86
2021/12/04 16:13:53;;;;;;;18.67;12.77;;;13.80;75.00;;;;;;10324932;28;20298;-86
2021/12/04 16:18:57;;;;;;;17.30;11.10;;;14.10;74.30;;;;;;10365278;28;20276;-86
2021/12/04 16:24:01;;;;;;;23.33;13.20;;;14.20;74.10;;;;;;10358855;28;20265;-86
2021/12/04 16:29:13;;;;;;;16.87;11.00;;;14.30;74.00;;;;;;10330154;28;20228;-86
2021/12/04 16:39:27;;;;;;;23.23;15.57;;;14.30;74.60;;;;;;10344969;28;20227;-86
2021/12/04 16:44:30;;;;;;;17.37;11.77;;;14.10;74.00;;;;;;10362730;28;20618;-87
2021/12/04 16:49:34;;;;;;;23.00;13.80;;;14.00;75.50;;;;;;10363225;28;20247;-85
2021/12/04 16:55:00;;;;;;;21.23;12.87;;;14.00;75.80;;;;;;10353536;28;20232;-85
2021/12/04 17:00:06;;;;;;;19.10;11.97;;;14.00;75.60;;;;;;10325503;28;20217;-85
2021/12/04 17:05:09;;;;;;;26.93;14.57;;;13.80;76.10;;;;;;10324536;28;20232;-85
2021/12/04 17:10:13;;;;;;;19.97;13.03;;;13.90;75.70;;;;;;10354901;28;20311;-85
2021/12/04 17:15:16;;;;;;;18.90;12.73;;;14.00;75.80;;;;;;10364259;28;20295;-86
2021/12/04 17:20:20;;;;;;;18.47;12.50;;;14.10;75.10;;;;;;10363399;28;20259;-85
2021/12/04 17:25:24;;;;;;;16.00;11.27;;;13.90;75.60;;;;;;10359396;28;20220;-86
2021/12/04 17:30:26;;;;;;;19.63;12.07;;;13.90;76.20;;;;;;10322179;28;20750;-85
2021/12/04 17:35:29;;;;;;;17.50;12.67;;;13.80;76.60;;;;;;10342227;28;20258;-85
2021/12/04 17:40:34;;;;;;;18.87;12.23;;;13.90;76.10;;;;;;10363066;28;20233;-86
2021/12/04 17:45:38;;;;;;;18.77;13.10;;;14.00;75.80;;;;;;10332837;28;20274;-86
2021/12/04 17:50:43;;;;;;;32.77;18.60;;;14.00;75.70;;;;;;10338090;28;20316;-86
2021/12/04 17:55:45;;;;;;;22.03;13.00;;;13.90;71.60;;;;;;10330599;28;20237;-86
2021/12/04 18:00:52;;;;;;;18.47;11.87;;;14.00;75.70;;;;;;10333784;28;20702;-85
2021/12/04 18:05:58;;;;;;;18.80;12.23;;;14.20;75.20;;;;;;10368172;28;20232;-86
2021/12/04 18:11:02;;;;;;;22.33;12.23;;;14.20;75.00;;;;;;10368892;28;20370;-86
2021/12/04 18:16:09;;;;;;;21.90;14.47;;;14.40;74.60;;;;;;10367351;28;20282;-86
2021/12/04 18:21:12;;;;;;;22.47;13.40;;;14.40;74.50;;;;;;10369705;28;20314;-86
2021/12/04 18:26:15;;;;;;;21.00;13.13;;;14.30;74.60;;;;;;10366891;28;20744;-87
2021/12/04 18:31:20;;;;;;;19.40;12.60;;;14.20;74.70;;;;;;10366988;28;20248;-86
2021/12/04 18:36:24;;;;;;;18.23;12.70;;;14.00;75.00;;;;;;10350422;28;20232;-86
2021/12/04 18:41:26;;;;;;;20.27;12.83;;;13.90;75.50;;;;;;10366082;28;20228;-86
2021/12/04 18:46:31;;;;;;;20.63;12.10;;;13.80;75.40;;;;;;10333966;28;20338;-87
2021/12/04 18:51:35;;;;;;;19.70;11.93;;;13.80;75.60;;;;;;10327932;28;20259;-86
2021/12/04 18:56:38;;;;;;;18.63;12.07;;;13.80;75.90;;;;;;10344576;28;20234;-86
2021/12/04 19:01:42;;;;;;;19.20;12.03;;;13.70;76.00;;;;;;10350571;28;20282;-86
2021/12/04 19:06:45;;;;;;;18.00;11.50;;;13.70;76.10;;;;;;10367378;28;20236;-86
2021/12/04 19:11:49;;;;;;;23.87;13.67;;;13.80;75.80;;;;;;10368215;28;20267;-86
2021/12/04 19:16:51;;;;;;;19.57;12.27;;;13.60;75.10;;;;;;10364539;28;20288;-86
2021/12/04 19:21:55;;;;;;;20.93;13.20;;;13.90;75.50;;;;;;10361865;28;20675;-86
2021/12/04 19:26:58;;;;;;;18.27;11.53;;;13.80;75.30;;;;;;10367461;28;20750;-86
2021/12/04 19:32:12;;;;;;;20.30;11.97;;;13.90;75.30;;;;;;10357537;28;20267;-86
2021/12/04 19:58:19;;;;;;;19.10;11.63;;;13.90;73.60;;;;;;10363372;28;20235;-86
2021/12/04 20:03:38;;;;;;;21.37;12.23;;;14.10;74.00;;;;;;10339565;28;20686;-86
2021/12/04 20:09:07;;;;;;;19.30;11.67;;;14.10;73.50;;;;;;10357043;28;20305;-85
2021/12/04 20:14:09;;;;;;;18.93;12.00;;;14.20;73.80;;;;;;10362129;28;20269;-86
2021/12/04 20:19:13;;;;;;;27.60;15.13;;;14.10;73.90;;;;;;10341243;28;20263;-86
2021/12/04 20:24:17;;;;;;;24.73;16.10;;;14.10;70.00;;;;;;10364407;28;20531;-86
2021/12/04 21:38:43;;;;;;;22.13;12.83;;;13.80;69.00;;;;;;10362459;28;20290;-86
2021/12/04 21:54:24;;;;;;;26.87;15.07;;;13.10;70.20;;;;;;10311674;28;20272;-87
2021/12/04 22:10:32;;;;;;;23.93;14.10;;;13.40;70.40;;;;;;10276678;28;20806;-87
2021/12/04 22:15:56;;;;;;;24.47;14.80;;;13.00;71.20;;;;;;10260158;28;20332;-87
2021/12/04 22:21:19;;;;;;;27.97;14.00;;;13.30;70.80;;;;;;10271481;28;20771;-85
2021/12/04 22:58:34;;;;;;;19.00;11.10;;;12.60;78.20;;;;;;10365556;28;20254;-87
2021/12/04 23:03:53;;;;;;;20.83;11.37;;;12.70;77.90;;;;;;10334878;28;20236;-86
2021/12/04 23:14:21;;;;;;;21.77;12.73;;;12.40;77.60;;;;;;10369010;28;20294;-86
2021/12/04 23:35:40;;;;;;;36.37;20.67;;;12.60;76.70;;;;;;10326954;28;20310;-87
